Time;durP1;ratioP1;P1;durP2;ratioP2;P2;SDS_P1;SDS_P2;PMS_P1;PMS_P2;Temp;Humidity;BMP_temperature;BMP_pressure;BME280_temperature;BME280_humidity;BME280_pressure;Samples;Min_cycle;Max_cycle;Signal;HPM_P1;HPM_P2
2020/12/23 00:01:30;;;;;;;3.45;3.25;;;3.40;99.90;;;;;;5089509;28;20198;-73
2020/12/23 00:03:56;;;;;;;5.15;4.45;;;3.40;99.90;;;;;;5090808;28;20208;-73
2020/12/23 00:06:33;;;;;;;2.10;2.00;;;3.40;99.90;;;;;;5090688;28;20157;-73
2020/12/23 00:09:00;;;;;;;3.15;2.92;;;3.30;99.90;;;;;;5089310;28;20175;-73
2020/12/23 00:11:26;;;;;;;1.30;1.20;;;3.30;99.90;;;;;;5090581;28;20206;-73
2020/12/23 00:13:52;;;;;;;1.02;1.02;;;3.30;99.90;;;;;;5090660;28;20161;-73
2020/12/23 00:16:18;;;;;;;1.80;1.70;;;3.20;99.90;;;;;;5090516;28;20251;-73
2020/12/23 00:18:44;;;;;;;2.25;2.15;;;3.10;99.90;;;;;;5089242;28;20172;-73
2020/12/23 00:21:09;;;;;;;3.50;3.22;;;3.10;99.90;;;;;;5089125;28;20216;-73
2020/12/23 00:23:36;;;;;;;2.47;2.38;;;3.00;99.90;;;;;;5090464;28;20152;-73
2020/12/23 00:26:05;;;;;;;4.15;3.75;;;2.90;99.90;;;;;;5090248;28;20188;-73
2020/12/23 00:28:31;;;;;;;4.20;3.88;;;2.90;99.90;;;;;;5090200;28;20152;-73
2020/12/23 00:30:57;;;;;;;1.92;1.83;;;2.80;99.90;;;;;;5090132;28;20221;-73
2020/12/23 00:33:22;;;;;;;3.15;2.47;;;2.80;99.90;;;;;;5090324;28;20167;-73
2020/12/23 00:35:48;;;;;;;2.33;2.20;;;2.80;99.90;;;;;;5090175;28;20199;-73
2020/12/23 00:38:14;;;;;;;5.18;4.75;;;2.70;99.90;;;;;;5090207;28;20234;-73
2020/12/23 00:40:40;;;;;;;2.05;1.95;;;2.70;99.90;;;;;;5088735;28;20199;-73
2020/12/23 00:43:06;;;;;;;1.75;1.48;;;2.70;99.90;;;;;;5088553;28;20224;-73
2020/12/23 00:45:32;;;;;;;0.82;0.82;;;2.50;99.90;;;;;;5089904;28;20156;-73
2020/12/23 00:47:58;;;;;;;1.88;1.77;;;2.50;99.90;;;;;;5089956;28;20178;-73
2020/12/23 00:50:23;;;;;;;4.20;2.65;;;2.40;99.90;;;;;;5088391;28;20620;-73
2020/12/23 00:52:49;;;;;;;1.70;1.60;;;2.40;99.90;;;;;;5088629;28;20176;-73
2020/12/23 00:55:15;;;;;;;2.30;2.08;;;2.40;99.90;;;;;;5089195;28;20183;-73
2020/12/23 00:57:41;;;;;;;1.02;1.02;;;2.50;99.90;;;;;;5089832;28;20247;-73
2020/12/23 01:00:08;;;;;;;1.10;1.08;;;2.40;99.90;;;;;;5089822;28;20180;-73
2020/12/23 01:02:34;;;;;;;2.00;1.90;;;2.40;99.90;;;;;;5088348;28;20191;-73
2020/12/23 01:04:59;;;;;;;2.60;2.40;;;2.50;99.90;;;;;;5089765;28;20155;-73
2020/12/23 01:07:25;;;;;;;1.23;1.13;;;2.50;99.90;;;;;;5089551;28;20168;-73
2020/12/23 01:09:51;;;;;;;1.48;1.38;;;2.50;99.90;;;;;;5089539;28;20160;-73
2020/12/23 01:12:17;;;;;;;4.45;1.42;;;2.40;99.90;;;;;;5089498;28;20192;-73
2020/12/23 01:14:43;;;;;;;1.58;1.50;;;2.30;99.90;;;;;;5089545;28;20160;-73
2020/12/23 01:17:14;;;;;;;3.75;3.33;;;2.40;99.90;;;;;;5089524;28;20199;-73
2020/12/23 01:19:41;;;;;;;3.30;1.98;;;2.50;99.90;;;;;;5089541;28;20160;-73
2020/12/23 01:22:07;;;;;;;0.75;0.75;;;2.50;99.90;;;;;;5088194;28;20268;-73
2020/12/23 01:24:33;;;;;;;0.40;0.40;;;2.40;99.90;;;;;;5088172;28;20203;-73
2020/12/23 01:26:59;;;;;;;1.38;1.38;;;2.40;99.90;;;;;;5089271;28;20164;-72
2020/12/23 01:29:25;;;;;;;2.63;2.28;;;2.40;99.90;;;;;;5089124;28;20159;-72
2020/12/23 01:31:51;;;;;;;2.28;1.52;;;2.40;99.90;;;;;;5088150;28;20218;-73
2020/12/23 01:34:17;;;;;;;1.10;1.10;;;2.30;99.90;;;;;;5089356;28;20224;-72
2020/12/23 01:36:49;;;;;;;1.25;1.25;;;2.40;99.90;;;;;;5089250;28;20206;-73
2020/12/23 01:39:15;;;;;;;1.95;1.85;;;2.20;99.90;;;;;;5089377;28;20180;-73
2020/12/23 01:41:41;;;;;;;1.65;1.55;;;2.20;99.90;;;;;;5089046;28;20273;-72
2020/12/23 01:44:07;;;;;;;1.67;1.58;;;2.40;99.90;;;;;;5089192;28;20631;-72
2020/12/23 01:46:36;;;;;;;1.85;1.75;;;2.60;99.90;;;;;;5089208;28;20160;-73
2020/12/23 01:49:09;;;;;;;2.30;2.10;;;2.60;99.90;;;;;;5088875;28;20174;-73
2020/12/23 01:51:35;;;;;;;2.33;2.22;;;2.70;99.90;;;;;;5089008;28;20200;-73
2020/12/23 01:54:02;;;;;;;3.30;2.28;;;2.70;99.90;;;;;;5089168;28;20160;-73
2020/12/23 01:56:30;;;;;;;2.08;1.98;;;2.70;99.90;;;;;;5089020;28;20278;-73
2020/12/23 01:58:56;;;;;;;1.00;1.00;;;2.60;99.90;;;;;;5089085;28;20156;-73
2020/12/23 02:01:29;;;;;;;2.83;2.40;;;2.40;99.90;;;;;;5089129;28;20188;-73
2020/12/23 02:03:56;;;;;;;3.15;2.55;;;2.40;99.90;;;;;;5089004;28;20167;-73
2020/12/23 02:06:22;;;;;;;2.63;1.65;;;2.30;99.90;;;;;;5090952;28;20166;-73
2020/12/23 02:08:51;;;;;;;1.35;1.30;;;2.30;99.90;;;;;;5092955;28;20637;-73
2020/12/23 02:11:18;;;;;;;0.60;0.60;;;2.30;99.90;;;;;;5092770;28;20191;-73
2020/12/23 02:13:45;;;;;;;1.80;1.70;;;2.30;99.90;;;;;;5093113;28;20215;-73
2020/12/23 02:16:13;;;;;;;2.08;1.98;;;2.30;99.90;;;;;;5092827;28;20195;-73
2020/12/23 02:18:40;;;;;;;0.60;0.60;;;2.30;99.90;;;;;;5092862;28;20153;-73
2020/12/23 02:21:06;;;;;;;2.65;2.45;;;2.40;99.90;;;;;;5092658;28;20192;-73
2020/12/23 02:23:32;;;;;;;3.80;3.33;;;2.40;99.90;;;;;;5091442;28;20164;-73
2020/12/23 02:25:58;;;;;;;3.40;3.20;;;2.50;99.90;;;;;;5092708;28;20156;-73
2020/12/23 02:28:24;;;;;;;0.63;0.63;;;2.60;99.90;;;;;;5091145;28;20175;-73
2020/12/23 02:30:59;;;;;;;1.30;1.30;;;2.70;99.90;;;;;;5092452;28;20289;-73
2020/12/23 02:33:25;;;;;;;0.82;0.82;;;2.70;99.90;;;;;;5092539;28;20171;-73
2020/12/23 02:35:51;;;;;;;5.10;2.90;;;2.70;99.90;;;;;;5091272;28;20195;-73
2020/12/23 02:38:17;;;;;;;2.70;2.50;;;2.70;99.90;;;;;;5092448;28;20187;-73
2020/12/23 02:40:43;;;;;;;0.50;0.50;;;2.70;99.90;;;;;;5092317;28;20652;-73
2020/12/23 02:43:09;;;;;;;1.20;1.20;;;2.60;99.90;;;;;;5092165;28;20646;-73
2020/12/23 02:45:35;;;;;;;0.80;0.80;;;2.50;99.90;;;;;;5092357;28;20152;-73
2020/12/23 02:48:01;;;;;;;1.48;1.38;;;2.60;99.90;;;;;;5092163;28;20160;-73
2020/12/23 02:50:26;;;;;;;1.10;1.10;;;2.60;99.90;;;;;;5092028;28;20161;-73
2020/12/23 02:52:52;;;;;;;2.63;2.42;;;2.50;99.90;;;;;;5092165;28;20211;-73
2020/12/23 02:55:18;;;;;;;1.83;1.75;;;2.40;99.90;;;;;;5092155;28;20179;-73
2020/12/23 02:57:44;;;;;;;1.80;1.70;;;2.40;99.90;;;;;;5092119;28;20188;-73
2020/12/23 03:00:10;;;;;;;2.28;2.15;;;2.40;99.90;;;;;;5092089;28;20167;-73
2020/12/23 03:02:36;;;;;;;1.00;1.00;;;2.40;99.90;;;;;;5091948;28;20191;-73
2020/12/23 03:05:03;;;;;;;0.77;0.77;;;2.50;99.90;;;;;;5091947;28;20160;-73
2020/12/23 03:07:29;;;;;;;1.02;1.02;;;2.60;99.90;;;;;;5091744;28;20170;-73
2020/12/23 03:09:55;;;;;;;1.45;1.40;;;2.60;99.90;;;;;;5091850;28;20635;-73
2020/12/23 03:12:21;;;;;;;3.55;3.22;;;2.50;99.90;;;;;;5091657;28;20250;-73
2020/12/23 03:14:47;;;;;;;1.33;0.45;;;2.50;99.90;;;;;;5091771;28;20206;-73
2020/12/23 03:17:13;;;;;;;1.77;1.70;;;2.40;99.90;;;;;;5089682;28;20203;-73
2020/12/23 03:19:39;;;;;;;2.92;2.20;;;2.50;99.90;;;;;;5091723;28;20160;-73
2020/12/23 03:22:05;;;;;;;2.33;2.22;;;2.60;99.90;;;;;;5090282;28;20195;-73
2020/12/23 03:24:31;;;;;;;1.60;1.50;;;2.40;99.90;;;;;;5090412;28;20218;-73
2020/12/23 03:26:56;;;;;;;2.15;2.05;;;2.30;99.90;;;;;;5091544;28;20220;-73
2020/12/23 03:29:22;;;;;;;1.20;1.20;;;2.20;99.90;;;;;;5091497;28;20164;-73
2020/12/23 03:31:48;;;;;;;2.28;2.13;;;2.20;99.90;;;;;;5091215;28;20223;-73
2020/12/23 03:34:14;;;;;;;1.27;1.27;;;2.10;99.90;;;;;;5091254;28;20188;-73
2020/12/23 03:36:40;;;;;;;1.10;1.00;;;1.90;99.90;;;;;;5091352;28;20192;-73
2020/12/23 03:39:07;;;;;;;1.40;1.35;;;1.90;99.90;;;;;;5090035;28;20198;-73
2020/12/23 03:41:34;;;;;;;0.73;0.70;;;1.90;99.90;;;;;;5090720;28;20218;-73
2020/12/23 03:44:02;;;;;;;1.85;1.75;;;1.80;99.90;;;;;;5089915;28;20203;-73
2020/12/23 03:46:28;;;;;;;1.88;1.77;;;1.70;99.90;;;;;;5091085;28;20156;-68
2020/12/23 03:48:53;;;;;;;1.35;1.33;;;1.70;99.90;;;;;;5090959;28;20243;-68
2020/12/23 03:51:19;;;;;;;2.67;2.47;;;1.80;99.90;;;;;;5089348;28;20203;-68
2020/12/23 03:53:45;;;;;;;2.75;2.65;;;1.90;99.90;;;;;;5089543;28;20183;-68
2020/12/23 03:56:11;;;;;;;0.30;0.30;;;1.90;99.90;;;;;;5089485;28;20196;-67
2020/12/23 03:58:37;;;;;;;1.77;1.67;;;2.10;99.90;;;;;;5090662;28;20148;-67
2020/12/23 04:01:03;;;;;;;0.70;0.70;;;2.10;99.90;;;;;;5090691;28;20214;-68
2020/12/23 04:03:28;;;;;;;4.00;3.60;;;2.00;99.90;;;;;;5090680;28;20156;-68
2020/12/23 04:05:54;;;;;;;0.95;0.95;;;2.00;99.90;;;;;;5089483;28;20636;-68
2020/12/23 04:08:20;;;;;;;1.05;1.02;;;1.90;99.90;;;;;;5090489;28;20240;-68
2020/12/23 04:10:46;;;;;;;0.85;0.85;;;1.80;99.90;;;;;;5090234;28;20254;-68
2020/12/23 04:13:12;;;;;;;1.10;1.02;;;1.60;99.90;;;;;;5090741;28;20160;-68
2020/12/23 04:15:38;;;;;;;3.65;3.35;;;1.60;99.90;;;;;;5090487;28;20184;-67
2020/12/23 04:18:03;;;;;;;1.10;1.10;;;1.60;99.90;;;;;;5090454;28;20161;-67
2020/12/23 04:20:29;;;;;;;1.13;1.13;;;1.80;99.90;;;;;;5090275;28;20156;-68
2020/12/23 04:22:55;;;;;;;1.15;1.15;;;1.90;99.90;;;;;;5090299;28;20164;-68
2020/12/23 04:25:21;;;;;;;0.60;0.60;;;1.90;99.90;;;;;;5090346;28;20216;-68
2020/12/23 04:27:47;;;;;;;0.93;0.90;;;1.70;99.90;;;;;;5089932;28;20160;-68
2020/12/23 04:30:13;;;;;;;1.58;1.52;;;1.70;99.90;;;;;;5089134;28;20289;-68
2020/12/23 04:32:39;;;;;;;0.70;0.70;;;1.50;99.90;;;;;;5090056;28;20527;-68
2020/12/23 04:35:05;;;;;;;1.00;1.00;;;1.30;99.90;;;;;;5088725;28;20172;-68
2020/12/23 04:37:34;;;;;;;1.65;1.55;;;1.30;99.90;;;;;;5089970;28;20199;-68
2020/12/23 04:40:03;;;;;;;1.33;1.27;;;1.30;99.90;;;;;;5088384;28;20533;-68
2020/12/23 04:42:29;;;;;;;1.42;1.35;;;1.30;99.90;;;;;;5089673;28;20220;-68
2020/12/23 04:44:56;;;;;;;2.00;1.90;;;1.20;99.90;;;;;;5088581;28;20644;-68
2020/12/23 04:47:26;;;;;;;0.75;0.75;;;1.20;99.90;;;;;;5089944;28;20153;-69
2020/12/23 04:49:56;;;;;;;2.60;1.45;;;1.20;99.90;;;;;;5089717;28;20164;-69
2020/12/23 04:52:35;;;;;;;1.63;1.55;;;1.20;99.90;;;;;;5089516;28;20184;-69
2020/12/23 04:55:06;;;;;;;1.15;1.15;;;1.20;99.90;;;;;;5089275;28;20160;-68
2020/12/23 04:57:39;;;;;;;0.80;0.80;;;1.20;99.90;;;;;;5089381;28;20188;-69
2020/12/23 05:00:08;;;;;;;0.57;0.57;;;1.10;99.90;;;;;;5089775;28;20231;-69
2020/12/23 05:02:35;;;;;;;3.15;2.38;;;1.20;99.90;;;;;;5089355;28;20191;-69
2020/12/23 05:05:01;;;;;;;0.82;0.82;;;1.30;99.90;;;;;;5089550;28;20157;-67
2020/12/23 05:07:26;;;;;;;0.55;0.55;;;1.30;99.90;;;;;;5089458;28;20179;-68
2020/12/23 05:09:52;;;;;;;1.83;1.67;;;1.30;99.90;;;;;;5089092;28;20242;-69
2020/12/23 05:12:19;;;;;;;0.30;0.30;;;1.30;99.90;;;;;;5089262;28;20199;-68
2020/12/23 05:14:46;;;;;;;0.98;0.95;;;1.30;99.90;;;;;;5088951;28;20168;-69
2020/12/23 05:17:15;;;;;;;0.93;0.93;;;1.40;99.90;;;;;;5087802;28;20257;-69
2020/12/23 05:19:41;;;;;;;1.95;1.85;;;1.30;99.90;;;;;;5089297;28;20156;-69
2020/12/23 05:22:08;;;;;;;1.85;1.75;;;1.30;99.90;;;;;;5089045;28;20196;-68
2020/12/23 05:24:38;;;;;;;2.95;2.72;;;1.20;99.90;;;;;;5089324;28;20269;-69
2020/12/23 05:27:06;;;;;;;1.73;1.65;;;1.10;99.90;;;;;;5089291;28;20171;-69
2020/12/23 05:29:33;;;;;;;2.40;2.28;;;1.20;99.90;;;;;;5088997;28;20632;-67
2020/12/23 05:32:04;;;;;;;0.60;0.60;;;1.10;99.90;;;;;;5088871;28;20195;-69
2020/12/23 05:34:35;;;;;;;1.80;1.67;;;1.20;99.90;;;;;;5089246;28;20164;-67
2020/12/23 05:37:03;;;;;;;1.38;1.38;;;1.10;99.90;;;;;;5087727;28;20207;-67
2020/12/23 05:39:32;;;;;;;0.50;0.50;;;1.10;99.90;;;;;;5089200;28;20153;-67
2020/12/23 05:41:59;;;;;;;0.25;0.25;;;1.10;99.90;;;;;;5088431;28;20204;-67
2020/12/23 05:44:25;;;;;;;1.50;1.40;;;1.10;99.90;;;;;;5088888;28;20228;-67
2020/12/23 05:46:51;;;;;;;1.25;1.23;;;1.20;99.90;;;;;;5089059;28;20160;-67
2020/12/23 05:49:20;;;;;;;2.30;2.20;;;1.30;99.90;;;;;;5087571;28;20184;-66
2020/12/23 05:51:46;;;;;;;0.32;0.32;;;1.40;99.90;;;;;;5087295;28;20195;-69
2020/12/23 05:54:12;;;;;;;0.43;0.43;;;1.50;99.90;;;;;;5087900;28;20156;-69
2020/12/23 05:56:42;;;;;;;0.88;0.88;;;1.50;99.90;;;;;;5087512;28;20222;-69
2020/12/23 05:59:09;;;;;;;1.40;1.40;;;1.60;99.90;;;;;;5088865;28;20164;-67
2020/12/23 06:01:37;;;;;;;0.57;0.57;;;1.60;99.90;;;;;;5088778;28;20191;-69
2020/12/23 06:04:08;;;;;;;0.95;0.95;;;1.60;99.90;;;;;;5088676;28;20213;-69
2020/12/23 06:06:35;;;;;;;0.65;0.65;;;1.60;99.90;;;;;;5088839;28;20159;-69
2020/12/23 06:09:06;;;;;;;1.00;1.00;;;1.60;99.90;;;;;;5088547;28;20180;-68
2020/12/23 06:11:47;;;;;;;2.70;1.83;;;1.60;99.90;;;;;;5088526;28;20187;-68
2020/12/23 06:14:14;;;;;;;2.90;2.70;;;1.70;99.90;;;;;;5088524;28;20160;-68
2020/12/23 06:17:04;;;;;;;1.80;1.77;;;1.60;99.90;;;;;;5088524;28;20199;-68
2020/12/23 06:19:39;;;;;;;1.70;1.52;;;1.60;99.90;;;;;;5087454;28;20175;-68
2020/12/23 06:22:09;;;;;;;1.33;1.27;;;1.60;99.90;;;;;;5088313;28;20191;-68
2020/12/23 06:24:36;;;;;;;1.50;1.42;;;1.60;99.90;;;;;;5088299;28;20164;-68
2020/12/23 06:27:05;;;;;;;7.18;2.92;;;1.70;99.90;;;;;;5088532;28;20224;-68
2020/12/23 06:29:35;;;;;;;0.80;0.80;;;1.60;99.90;;;;;;5088395;28;20160;-68
2020/12/23 06:32:04;;;;;;;2.05;1.50;;;1.60;99.90;;;;;;5088259;28;20251;-68
2020/12/23 06:34:31;;;;;;;0.95;0.95;;;1.70;99.90;;;;;;5087290;28;20164;-68
2020/12/23 06:36:58;;;;;;;1.55;1.45;;;1.70;99.90;;;;;;5088463;28;20191;-68
2020/12/23 06:39:40;;;;;;;0.30;0.30;;;1.80;99.90;;;;;;5088542;28;20156;-68
2020/12/23 06:42:06;;;;;;;1.50;1.42;;;1.80;99.90;;;;;;5088321;28;20245;-67
2020/12/23 06:44:44;;;;;;;0.35;0.35;;;1.80;99.90;;;;;;5086961;28;20191;-68
2020/12/23 06:47:21;;;;;;;0.35;0.35;;;1.80;99.90;;;;;;5088425;28;20160;-67
2020/12/23 06:50:00;;;;;;;0.43;0.43;;;1.90;99.90;;;;;;5087618;28;20186;-68
2020/12/23 06:52:28;;;;;;;1.25;1.25;;;2.10;99.90;;;;;;5087201;28;20179;-68
2020/12/23 06:54:55;;;;;;;1.00;1.00;;;2.20;99.90;;;;;;5092008;28;20152;-68
2020/12/23 06:57:36;;;;;;;0.43;0.43;;;2.30;99.90;;;;;;5090314;28;20205;-67
2020/12/23 07:00:20;;;;;;;1.00;1.00;;;2.40;99.90;;;;;;5090174;28;20233;-68
2020/12/23 07:02:48;;;;;;;0.47;0.47;;;2.20;99.90;;;;;;5107786;28;20195;-68
2020/12/23 07:05:23;;;;;;;1.38;1.33;;;2.10;99.90;;;;;;5111989;28;20151;-67
2020/12/23 07:08:19;;;;;;;2.05;1.95;;;2.30;99.90;;;;;;5111645;28;20159;-67
2020/12/23 07:10:47;;;;;;;4.80;4.18;;;2.40;99.90;;;;;;5109186;28;20412;-67
2020/12/23 07:13:19;;;;;;;1.73;1.65;;;2.40;99.90;;;;;;5111713;28;20159;-68
2020/12/23 07:15:50;;;;;;;6.80;3.83;;;2.50;99.90;;;;;;5110383;28;20182;-68
2020/12/23 07:18:22;;;;;;;1.45;1.45;;;2.50;99.90;;;;;;5111847;28;20171;-67
2020/12/23 07:20:51;;;;;;;1.42;1.42;;;2.60;99.90;;;;;;5111641;28;20632;-67
2020/12/23 07:23:20;;;;;;;0.40;0.40;;;2.70;99.90;;;;;;5111654;28;20159;-67
2020/12/23 07:25:48;;;;;;;0.30;0.30;;;2.80;99.90;;;;;;5111826;28;20159;-67
2020/12/23 07:28:17;;;;;;;3.05;2.33;;;2.80;99.90;;;;;;5111799;28;20159;-67
2020/12/23 07:30:45;;;;;;;1.80;1.70;;;2.90;99.90;;;;;;5111138;28;20175;-67
2020/12/23 07:33:22;;;;;;;3.45;2.85;;;3.00;99.90;;;;;;5111455;28;20205;-68
2020/12/23 07:35:54;;;;;;;5.53;2.40;;;3.00;99.90;;;;;;5110386;28;20167;-68
2020/12/23 07:38:22;;;;;;;0.85;0.85;;;3.20;99.90;;;;;;5111495;28;20152;-67
2020/12/23 07:40:48;;;;;;;2.42;1.55;;;3.30;99.90;;;;;;5109954;28;20639;-67
2020/12/23 07:43:16;;;;;;;2.10;2.00;;;3.30;99.90;;;;;;5111033;28;20272;-68
2020/12/23 07:45:43;;;;;;;2.00;1.23;;;3.40;99.90;;;;;;5111401;28;20178;-68
2020/12/23 07:48:15;;;;;;;0.52;0.52;;;3.50;99.90;;;;;;5111168;28;20162;-68
2020/12/23 07:50:44;;;;;;;1.33;1.33;;;3.60;99.90;;;;;;5110927;28;20149;-67
2020/12/23 07:53:12;;;;;;;1.90;1.80;;;3.80;99.90;;;;;;5111013;28;20209;-68
2020/12/23 07:55:40;;;;;;;1.98;1.88;;;3.80;99.90;;;;;;5110406;28;20262;-68
2020/12/23 07:58:07;;;;;;;0.77;0.77;;;3.90;99.90;;;;;;5111110;28;20160;-68
2020/12/23 08:00:34;;;;;;;0.60;0.60;;;4.00;99.90;;;;;;5109834;28;20172;-67
2020/12/23 08:03:00;;;;;;;1.67;1.65;;;4.30;99.90;;;;;;5110192;28;20196;-67
2020/12/23 08:05:26;;;;;;;7.88;3.45;;;4.80;99.90;;;;;;5110799;28;20155;-67
2020/12/23 08:07:52;;;;;;;2.97;2.80;;;5.20;99.90;;;;;;5109486;28;20172;-67
2020/12/23 08:10:20;;;;;;;1.08;0.98;;;5.40;99.90;;;;;;5109240;28;20175;-68
2020/12/23 08:13:04;;;;;;;1.13;1.10;;;5.60;99.90;;;;;;5109444;28;20277;-67
2020/12/23 08:15:31;;;;;;;1.13;1.13;;;6.00;99.90;;;;;;5110442;28;20183;-67
2020/12/23 08:18:04;;;;;;;0.68;0.65;;;6.20;99.90;;;;;;5110600;28;20232;-68
2020/12/23 08:20:32;;;;;;;1.52;1.45;;;6.20;99.90;;;;;;5109318;28;20174;-68
2020/12/23 08:22:58;;;;;;;0.93;0.90;;;6.70;99.90;;;;;;5107143;28;20195;-68
2020/12/23 08:25:25;;;;;;;0.63;0.63;;;7.30;99.90;;;;;;5110654;28;20160;-72
2020/12/23 08:27:53;;;;;;;0.60;0.60;;;8.10;99.90;;;;;;5110711;28;20162;-73
2020/12/23 08:30:40;;;;;;;1.50;1.40;;;8.90;99.90;;;;;;5110439;28;20191;-73
2020/12/23 08:33:14;;;;;;;2.35;2.15;;;9.20;99.90;;;;;;5110323;28;20191;-73
2020/12/23 08:35:42;;;;;;;2.15;1.38;;;8.80;99.90;;;;;;5110179;28;20160;-73
2020/12/23 08:38:22;;;;;;;6.28;2.85;;;8.60;99.90;;;;;;5110323;28;20200;-73
2020/12/23 08:40:53;;;;;;;2.33;1.38;;;8.50;99.90;;;;;;5110215;28;20158;-73
2020/12/23 08:43:30;;;;;;;1.40;1.05;;;9.00;99.90;;;;;;5108672;28;20241;-73
2020/12/23 08:45:58;;;;;;;0.50;0.50;;;9.70;99.90;;;;;;5110137;28;20156;-73
2020/12/23 08:48:29;;;;;;;2.25;2.10;;;10.80;99.90;;;;;;5110281;28;20148;-73
2020/12/23 08:51:03;;;;;;;1.65;1.50;;;11.20;99.90;;;;;;5110119;28;20155;-73
2020/12/23 08:53:37;;;;;;;0.55;0.55;;;11.70;99.90;;;;;;5108735;28;20182;-73
2020/12/23 08:56:23;;;;;;;1.77;1.67;;;12.30;99.90;;;;;;5108177;28;20203;-73
2020/12/23 08:59:01;;;;;;;7.72;1.10;;;12.80;99.90;;;;;;5109747;28;20178;-73
2020/12/23 09:01:29;;;;;;;2.03;1.90;;;12.90;99.90;;;;;;5108992;28;20538;-73
2020/12/23 09:04:04;;;;;;;1.00;1.00;;;13.60;99.90;;;;;;5109631;28;20187;-73
2020/12/23 09:06:30;;;;;;;1.25;1.25;;;13.90;99.90;;;;;;5109800;28;20154;-73
2020/12/23 09:09:25;;;;;;;2.95;2.75;;;14.60;99.90;;;;;;5108120;28;20193;-74
2020/12/23 09:11:53;;;;;;;1.92;1.77;;;14.60;99.90;;;;;;5109170;28;20187;-73
2020/12/23 09:14:37;;;;;;;1.55;1.45;;;15.00;99.90;;;;;;5109655;28;20182;-73
2020/12/23 09:17:07;;;;;;;3.47;3.17;;;15.20;99.90;;;;;;5108735;28;20202;-73
2020/12/23 09:20:00;;;;;;;2.42;2.22;;;15.70;99.90;;;;;;5109131;28;20188;-73
2020/12/23 09:22:30;;;;;;;2.70;2.50;;;16.40;99.90;;;;;;5109543;28;20155;-73
2020/12/23 09:25:15;;;;;;;5.47;2.25;;;15.10;99.90;;;;;;5108136;28;20211;-72
2020/12/23 09:27:46;;;;;;;2.65;2.45;;;13.80;99.90;;;;;;5109386;28;20521;-73
2020/12/23 09:30:12;;;;;;;3.45;2.05;;;13.70;99.90;;;;;;5109071;28;20195;-73
2020/12/23 09:32:52;;;;;;;2.22;2.13;;;13.80;99.90;;;;;;5109238;28;20213;-73
2020/12/23 09:35:21;;;;;;;3.75;3.45;;;13.60;99.90;;;;;;5109028;28;20174;-73
2020/12/23 09:37:47;;;;;;;1.95;1.77;;;12.80;99.90;;;;;;5108397;28;20187;-72
2020/12/23 09:40:15;;;;;;;1.60;1.50;;;12.40;99.90;;;;;;5107258;28;20191;-72
2020/12/23 09:42:41;;;;;;;1.77;1.67;;;12.20;99.90;;;;;;5108774;28;20215;-72
2020/12/23 09:45:08;;;;;;;2.30;2.10;;;12.10;99.90;;;;;;5108740;28;20179;-72
2020/12/23 09:47:40;;;;;;;9.00;1.08;;;12.00;99.90;;;;;;5108848;28;20163;-73
2020/12/23 09:50:06;;;;;;;1.73;1.63;;;12.50;99.90;;;;;;5108439;28;20195;-72
2020/12/23 09:52:32;;;;;;;1.00;0.98;;;13.50;99.90;;;;;;5108864;28;20174;-73
2020/12/23 09:54:58;;;;;;;2.22;1.77;;;14.60;99.90;;;;;;5108653;28;20156;-73
2020/12/23 09:57:24;;;;;;;1.33;1.25;;;14.80;99.90;;;;;;5107443;28;20277;-73
2020/12/23 09:59:49;;;;;;;1.50;1.40;;;14.50;99.90;;;;;;5109064;28;20197;-72
2020/12/23 10:02:15;;;;;;;2.03;1.23;;;15.00;99.90;;;;;;5109047;28;20639;-73
2020/12/23 10:04:41;;;;;;;2.72;2.47;;;16.10;99.90;;;;;;5107868;28;20205;-73
2020/12/23 10:07:09;;;;;;;2.50;2.33;;;16.60;99.90;;;;;;5109071;28;20174;-73
2020/12/23 10:09:35;;;;;;;4.45;2.90;;;16.60;99.90;;;;;;5108982;28;20283;-73
2020/12/23 10:12:01;;;;;;;2.13;1.70;;;15.80;99.90;;;;;;5108789;28;20155;-73
2020/12/23 10:14:26;;;;;;;3.88;2.45;;;14.70;99.90;;;;;;5107443;28;20175;-73
2020/12/23 10:16:52;;;;;;;25.02;2.30;;;14.60;99.90;;;;;;5108379;28;20247;-73
2020/12/23 10:19:18;;;;;;;2.05;1.95;;;15.50;99.90;;;;;;5108687;28;20223;-73
2020/12/23 10:21:43;;;;;;;2.67;2.45;;;15.60;99.90;;;;;;5108957;28;20187;-73
2020/12/23 10:24:09;;;;;;;1.85;1.75;;;14.80;99.90;;;;;;5108592;28;20238;-72
2020/12/23 10:26:35;;;;;;;1.67;1.60;;;14.70;99.90;;;;;;5107926;28;20228;-73
2020/12/23 10:29:01;;;;;;;4.20;2.47;;;14.90;99.90;;;;;;5111406;28;20231;-73
2020/12/23 10:31:26;;;;;;;2.28;2.17;;;15.10;99.90;;;;;;5112693;28;20210;-73
2020/12/23 10:33:52;;;;;;;1.95;1.85;;;15.40;99.90;;;;;;5112790;28;20159;-73
2020/12/23 10:36:18;;;;;;;2.75;2.38;;;15.30;99.90;;;;;;5112557;28;20198;-73
2020/12/23 10:38:44;;;;;;;1.83;1.73;;;15.50;99.90;;;;;;5112424;28;20163;-73
2020/12/23 10:41:10;;;;;;;2.80;1.80;;;15.40;99.90;;;;;;5110870;28;20195;-73
2020/12/23 10:43:36;;;;;;;1.10;1.08;;;15.90;99.90;;;;;;5110883;28;20227;-73
2020/12/23 10:46:06;;;;;;;3.22;1.98;;;15.90;99.90;;;;;;5112592;28;20185;-73
2020/12/23 10:48:32;;;;;;;1.92;1.70;;;16.10;99.90;;;;;;5112341;28;20155;-73
2020/12/23 10:50:58;;;;;;;3.55;1.58;;;16.10;99.90;;;;;;5112252;28;20191;-73
2020/12/23 10:53:24;;;;;;;2.35;2.15;;;15.50;99.90;;;;;;5112359;28;20151;-73
2020/12/23 10:55:49;;;;;;;1.73;1.65;;;14.80;99.90;;;;;;5112202;28;20152;-73
2020/12/23 10:58:15;;;;;;;2.88;2.53;;;14.60;99.90;;;;;;5111773;28;20169;-72
2020/12/23 11:00:41;;;;;;;2.88;2.17;;;14.80;99.90;;;;;;5111994;28;20263;-72
2020/12/23 11:03:06;;;;;;;2.28;2.13;;;14.50;99.90;;;;;;5110558;28;20164;-72
2020/12/23 11:05:32;;;;;;;0.95;0.95;;;13.90;99.90;;;;;;5112197;28;20167;-72
2020/12/23 11:07:58;;;;;;;1.15;1.15;;;13.90;99.90;;;;;;5112230;28;20654;-73
2020/12/23 11:10:24;;;;;;;1.77;1.67;;;14.30;99.90;;;;;;5111596;28;20249;-72
2020/12/23 11:12:49;;;;;;;5.97;3.40;;;14.60;99.90;;;;;;5111793;28;20212;-72
2020/12/23 11:15:16;;;;;;;4.45;2.15;;;14.70;99.90;;;;;;5110460;28;20245;-72
2020/12/23 11:17:44;;;;;;;2.25;2.08;;;14.70;99.90;;;;;;5111318;28;20663;-72
2020/12/23 11:20:11;;;;;;;1.75;1.65;;;14.60;99.90;;;;;;5110468;28;20206;-72
2020/12/23 11:22:37;;;;;;;1.90;1.80;;;14.40;99.90;;;;;;5110332;28;20184;-72
2020/12/23 11:25:04;;;;;;;1.58;1.33;;;14.10;99.90;;;;;;5111876;28;20187;-73
2020/12/23 11:27:31;;;;;;;0.93;0.93;;;13.70;99.90;;;;;;5111658;28;20160;-73
2020/12/23 11:29:57;;;;;;;1.15;1.10;;;13.70;99.90;;;;;;5110057;28;20225;-73
2020/12/23 11:32:22;;;;;;;4.30;1.83;;;13.70;99.90;;;;;;5110334;28;20231;-73
2020/12/23 11:34:48;;;;;;;0.77;0.77;;;13.80;99.90;;;;;;5110063;28;20235;-72
2020/12/23 11:37:14;;;;;;;4.88;3.00;;;14.00;99.90;;;;;;5111106;28;20183;-73
2020/12/23 11:39:40;;;;;;;1.33;0.98;;;14.30;99.90;;;;;;5110584;28;20198;-73
2020/12/23 11:42:06;;;;;;;4.30;2.75;;;14.50;99.90;;;;;;5111061;28;20203;-73
2020/12/23 11:44:32;;;;;;;3.60;0.60;;;14.50;99.90;;;;;;5111487;28;20167;-73
2020/12/23 11:46:57;;;;;;;0.82;0.82;;;14.30;99.90;;;;;;5111429;28;20223;-73
2020/12/23 11:49:24;;;;;;;6.03;1.20;;;14.30;99.90;;;;;;5110901;28;20193;-73
2020/12/23 11:51:53;;;;;;;9.05;2.50;;;14.10;99.90;;;;;;5111368;28;20177;-73
2020/12/23 11:54:19;;;;;;;1.55;1.45;;;13.80;99.90;;;;;;5110971;28;20598;-73
2020/12/23 11:56:46;;;;;;;1.48;1.38;;;14.00;99.90;;;;;;5109514;28;20195;-73
2020/12/23 11:59:13;;;;;;;1.58;1.05;;;14.30;99.90;;;;;;5110583;28;20204;-73
2020/12/23 12:01:39;;;;;;;1.17;1.08;;;15.00;99.90;;;;;;5109465;28;20240;-73
2020/12/23 12:04:05;;;;;;;0.32;0.32;;;15.50;99.90;;;;;;5110636;28;20155;-73
2020/12/23 12:06:31;;;;;;;0.75;0.75;;;15.80;99.90;;;;;;5109197;28;20242;-73
2020/12/23 12:08:57;;;;;;;3.13;2.10;;;16.20;99.90;;;;;;5109631;28;20167;-73
2020/12/23 12:11:23;;;;;;;0.55;0.55;;;16.10;99.90;;;;;;5110473;28;20194;-73
2020/12/23 12:13:50;;;;;;;0.80;0.80;;;16.00;99.90;;;;;;5110829;28;20184;-73
2020/12/23 12:16:16;;;;;;;6.82;1.15;;;16.00;99.90;;;;;;5109375;28;20202;-73
2020/12/23 12:18:42;;;;;;;17.70;2.53;;;16.30;99.90;;;;;;5110044;28;20155;-73
2020/12/23 12:21:08;;;;;;;0.63;0.60;;;16.40;99.90;;;;;;5110492;28;20197;-73
2020/12/23 12:23:34;;;;;;;0.45;0.45;;;15.80;99.90;;;;;;5110389;28;20162;-73
2020/12/23 12:25:59;;;;;;;1.45;0.70;;;15.30;99.90;;;;;;5110385;28;20151;-73
2020/12/23 12:28:25;;;;;;;0.50;0.50;;;15.50;99.90;;;;;;5109167;28;20171;-73
2020/12/23 12:30:51;;;;;;;2.85;0.88;;;15.50;99.90;;;;;;5109979;28;20218;-73
2020/12/23 12:33:17;;;;;;;0.90;0.90;;;15.10;99.90;;;;;;5108933;28;20159;-73
2020/12/23 12:35:43;;;;;;;0.57;0.57;;;14.30;99.90;;;;;;5108343;28;20223;-72
2020/12/23 12:38:10;;;;;;;0.68;0.68;;;13.50;99.90;;;;;;5109986;28;20192;-73
2020/12/23 12:40:37;;;;;;;0.93;0.93;;;12.90;99.90;;;;;;5108691;28;20163;-73
2020/12/23 12:43:03;;;;;;;0.80;0.80;;;12.70;99.90;;;;;;5109812;28;20219;-73
2020/12/23 12:45:29;;;;;;;0.40;0.40;;;12.40;99.90;;;;;;5109784;28;20151;-73
2020/12/23 12:47:55;;;;;;;0.20;0.20;;;12.30;99.90;;;;;;5109888;28;20219;-73
2020/12/23 12:50:22;;;;;;;0.20;0.20;;;12.20;99.90;;;;;;5109091;28;20164;-72
2020/12/23 12:52:48;;;;;;;1.48;1.23;;;12.20;99.90;;;;;;5108364;28;20278;-73
2020/12/23 12:55:14;;;;;;;0.30;0.30;;;12.10;99.90;;;;;;5109579;28;20191;-73
2020/12/23 12:57:40;;;;;;;1.00;0.95;;;12.10;99.90;;;;;;5109666;28;20242;-73